Time;durP1;ratioP1;P1;durP2;ratioP2;P2;SDS_P1;SDS_P2;PMS_P1;PMS_P2;Temp;Humidity;BMP_temperature;BMP_pressure;BME280_temperature;BME280_humidity;BME280_pressure;Samples;Min_cycle;Max_cycle;Signal;HPM_P1;HPM_P2
2022/10/22 00:00:14;;;;;;;1.40;0.97;;;24.10;99.90;;;;;;5072754;28;20227;-74
2022/10/22 00:02:42;;;;;;;2.57;0.97;;;25.40;99.90;;;;;;5090348;28;20227;-73
2022/10/22 00:05:11;;;;;;;2.47;1.00;;;26.30;99.90;;;;;;5090114;28;20195;-74
2022/10/22 00:07:38;;;;;;;3.13;0.90;;;26.50;99.90;;;;;;5077951;28;20194;-73
2022/10/22 00:10:07;;;;;;;3.87;0.90;;;26.50;99.90;;;;;;5092644;28;20191;-72
2022/10/22 00:12:35;;;;;;;1.10;0.73;;;26.70;99.90;;;;;;5074999;28;20180;-73
2022/10/22 00:15:04;;;;;;;0.97;0.53;;;26.70;99.90;;;;;;5090160;28;20183;-73
2022/10/22 00:17:32;;;;;;;2.77;0.90;;;27.00;99.90;;;;;;5085645;28;20713;-73
2022/10/22 00:20:00;;;;;;;0.73;0.70;;;27.30;99.90;;;;;;5072706;28;20297;-73
2022/10/22 00:22:28;;;;;;;8.27;1.00;;;26.90;99.90;;;;;;5072850;28;20180;-73
2022/10/22 00:24:55;;;;;;;1.93;0.90;;;27.00;99.90;;;;;;5074023;28;20176;-74
2022/10/22 00:27:24;;;;;;;1.00;0.60;;;27.40;99.90;;;;;;5072698;28;20184;-73
2022/10/22 00:29:52;;;;;;;6.20;0.80;;;27.50;99.90;;;;;;5089037;28;20649;-75
2022/10/22 00:32:19;;;;;;;0.50;0.50;;;27.70;99.90;;;;;;5086676;28;20171;-75
2022/10/22 00:34:47;;;;;;;3.00;0.77;;;28.30;99.90;;;;;;5072523;28;20190;-75
2022/10/22 00:37:15;;;;;;;2.67;0.73;;;28.30;99.90;;;;;;5072550;28;20202;-74
2022/10/22 00:39:43;;;;;;;1.33;0.60;;;28.30;99.90;;;;;;5077282;28;20211;-73
2022/10/22 00:42:21;;;;;;;2.30;0.60;;;28.00;99.90;;;;;;5091047;28;20183;-74
2022/10/22 00:45:07;;;;;;;1.13;0.70;;;27.90;99.90;;;;;;5087441;28;20175;-70
2022/10/22 00:47:39;;;;;;;1.00;0.63;;;28.20;99.90;;;;;;5075296;28;20262;-78
2022/10/22 00:50:33;;;;;;;0.70;0.70;;;28.20;99.90;;;;;;5083932;28;20305;-75
2022/10/22 00:53:02;;;;;;;2.20;0.80;;;28.30;99.90;;;;;;5054144;28;20194;-76
2022/10/22 00:55:34;;;;;;;3.00;0.70;;;28.50;99.90;;;;;;5090493;28;20207;-74
2022/10/22 00:58:02;;;;;;;1.67;0.90;;;28.50;99.90;;;;;;5076169;28;20640;-73
2022/10/22 01:00:31;;;;;;;0.90;0.80;;;28.60;99.90;;;;;;5072374;28;20251;-73
2022/10/22 01:02:59;;;;;;;0.93;0.60;;;28.60;99.90;;;;;;5058177;28;20617;-73
2022/10/22 01:05:38;;;;;;;2.73;1.30;;;28.50;99.90;;;;;;5072328;28;20183;-74
2022/10/22 01:08:10;;;;;;;0.60;0.60;;;28.40;99.90;;;;;;5072069;28;20175;-73
2022/10/22 01:10:52;;;;;;;1.23;0.60;;;28.60;99.90;;;;;;5073115;28;20188;-73
2022/10/22 01:13:40;;;;;;;0.80;0.77;;;29.00;99.90;;;;;;5074980;28;20179;-73
2022/10/22 01:16:16;;;;;;;1.03;0.80;;;28.50;99.90;;;;;;5086144;28;20691;-74
2022/10/22 01:19:01;;;;;;;1.27;0.90;;;28.50;99.90;;;;;;5071802;28;20218;-72
2022/10/22 01:21:44;;;;;;;1.23;0.90;;;28.30;99.90;;;;;;5071914;28;20184;-73
2022/10/22 01:24:43;;;;;;;0.93;0.70;;;28.30;99.90;;;;;;5071835;28;20194;-73
2022/10/22 01:27:19;;;;;;;2.27;1.00;;;28.40;99.90;;;;;;5079573;28;20676;-73
2022/10/22 01:29:57;;;;;;;4.80;0.83;;;28.30;99.90;;;;;;5089514;28;20182;-73
2022/10/22 01:32:26;;;;;;;1.20;0.80;;;28.00;99.90;;;;;;5091110;28;20609;-76
2022/10/22 01:35:02;;;;;;;0.93;0.83;;;27.70;99.90;;;;;;5091469;28;20649;-76
2022/10/22 01:37:32;;;;;;;1.23;0.70;;;27.60;99.90;;;;;;5091186;28;20182;-75
2022/10/22 01:40:01;;;;;;;1.57;0.93;;;27.60;99.90;;;;;;5087618;28;20219;-74
2022/10/22 01:42:29;;;;;;;4.30;0.80;;;27.60;99.90;;;;;;5071441;28;20190;-74
2022/10/22 01:44:57;;;;;;;1.43;0.90;;;27.70;99.90;;;;;;5072666;28;20187;-76
2022/10/22 01:48:05;;;;;;;1.47;0.70;;;27.30;99.90;;;;;;5086978;28;20199;-74
2022/10/22 01:50:47;;;;;;;0.77;0.77;;;27.00;99.90;;;;;;5032932;28;20201;-75
2022/10/22 01:53:27;;;;;;;1.30;1.00;;;26.90;99.90;;;;;;5077916;28;20182;-75
2022/10/22 01:55:58;;;;;;;1.30;0.67;;;27.10;99.90;;;;;;5076053;28;20550;-75
2022/10/22 01:58:45;;;;;;;2.27;0.80;;;27.20;99.90;;;;;;5071664;28;20761;-74
2022/10/22 02:01:57;;;;;;;2.43;0.90;;;27.20;99.90;;;;;;5071526;28;20587;-74
2022/10/22 02:04:50;;;;;;;3.30;1.07;;;27.00;99.90;;;;;;4999739;28;20188;-74
2022/10/22 02:07:22;;;;;;;0.73;0.73;;;26.80;99.90;;;;;;5070079;28;20638;-76
2022/10/22 02:09:52;;;;;;;0.97;0.93;;;26.80;99.90;;;;;;5088480;28;20284;-74
2022/10/22 02:12:21;;;;;;;1.23;0.80;;;26.80;99.90;;;;;;5095786;28;20175;-75
2022/10/22 02:14:51;;;;;;;2.13;1.20;;;26.70;99.90;;;;;;5095289;28;20519;-74
2022/10/22 02:17:22;;;;;;;2.00;0.80;;;26.60;99.90;;;;;;5095034;28;20183;-77
2022/10/22 02:20:04;;;;;;;1.53;0.97;;;26.30;99.90;;;;;;5095330;28;20207;-75
2022/10/22 02:22:33;;;;;;;2.97;1.00;;;26.20;99.90;;;;;;5095136;28;20538;-74
2022/10/22 02:25:01;;;;;;;2.80;0.80;;;26.20;99.90;;;;;;5095386;28;20175;-77
2022/10/22 02:27:43;;;;;;;3.17;0.97;;;26.20;99.90;;;;;;5095131;28;20182;-76
2022/10/22 02:30:14;;;;;;;5.27;1.47;;;26.20;99.90;;;;;;5095496;28;20664;-73
2022/10/22 02:32:42;;;;;;;2.90;0.87;;;26.30;99.90;;;;;;5075854;28;20175;-74
2022/10/22 02:35:16;;;;;;;3.03;0.80;;;26.30;99.90;;;;;;5074770;28;20172;-74
2022/10/22 02:37:45;;;;;;;0.97;0.87;;;26.20;99.90;;;;;;5075008;28;20183;-72
2022/10/22 02:40:13;;;;;;;1.77;1.13;;;25.90;99.90;;;;;;5074852;28;20306;-73
2022/10/22 02:42:42;;;;;;;1.40;0.87;;;25.90;99.90;;;;;;5074797;28;20200;-74
2022/10/22 02:45:10;;;;;;;4.17;0.97;;;25.70;99.90;;;;;;5084396;28;20551;-76
2022/10/22 02:47:39;;;;;;;2.33;1.00;;;25.60;99.90;;;;;;5095011;28;20175;-73
2022/10/22 02:50:08;;;;;;;1.10;0.90;;;25.40;99.90;;;;;;5094481;28;20281;-72
2022/10/22 02:52:37;;;;;;;2.10;1.13;;;25.40;99.90;;;;;;5095321;28;20515;-72
2022/10/22 02:55:05;;;;;;;2.53;1.00;;;25.50;99.90;;;;;;5090415;28;20179;-73
2022/10/22 02:57:33;;;;;;;2.23;0.83;;;25.20;99.90;;;;;;5074462;28;20184;-73
2022/10/22 03:00:01;;;;;;;2.60;0.97;;;24.70;99.90;;;;;;5073953;28;20227;-74
2022/10/22 03:02:29;;;;;;;1.03;0.93;;;24.50;99.90;;;;;;5056510;28;20188;-73
2022/10/22 03:04:57;;;;;;;1.63;1.03;;;24.40;99.90;;;;;;5074411;28;20179;-73
2022/10/22 03:07:25;;;;;;;3.07;1.23;;;24.40;99.90;;;;;;5074466;28;20180;-73
2022/10/22 03:13:14;;;;;;;5.73;2.30;;;24.30;99.90;;;;;;5084175;28;20198;-75
2022/10/22 03:15:42;;;;;;;5.17;2.13;;;23.70;99.90;;;;;;5075009;28;20536;-74
2022/10/22 03:18:10;;;;;;;5.80;2.90;;;23.10;99.90;;;;;;5073790;28;20198;-75
2022/10/22 03:20:38;;;;;;;10.03;2.97;;;22.80;99.90;;;;;;5055044;28;20234;-74
2022/10/22 03:23:06;;;;;;;7.03;2.63;;;22.50;99.90;;;;;;5073949;28;20186;-76
2022/10/22 03:25:35;;;;;;;6.47;2.27;;;22.20;99.90;;;;;;5088130;28;20187;-74
2022/10/22 03:28:07;;;;;;;6.30;2.00;;;22.20;99.90;;;;;;5076029;28;20183;-73
2022/10/22 03:30:35;;;;;;;6.73;1.73;;;22.30;99.90;;;;;;5094213;28;20209;-72
2022/10/22 03:33:03;;;;;;;7.80;2.20;;;22.50;99.90;;;;;;5094083;28;20228;-73
2022/10/22 03:35:32;;;;;;;4.43;2.30;;;22.80;99.90;;;;;;5073994;28;20587;-73
2022/10/22 03:38:01;;;;;;;2.17;1.73;;;23.10;99.90;;;;;;5093052;28;20595;-74
2022/10/22 03:40:29;;;;;;;2.63;1.77;;;23.30;99.90;;;;;;5079387;28;20265;-74
2022/10/22 03:42:58;;;;;;;4.50;1.80;;;23.40;99.90;;;;;;5090323;28;20172;-74
2022/10/22 03:45:26;;;;;;;2.37;1.40;;;23.70;99.90;;;;;;5073615;28;20180;-75
2022/10/22 03:47:54;;;;;;;2.13;0.87;;;24.10;99.90;;;;;;5073531;28;20669;-73
2022/10/22 03:50:21;;;;;;;1.03;0.90;;;24.40;99.90;;;;;;5085796;28;20653;-76
2022/10/22 03:52:48;;;;;;;4.13;0.80;;;24.50;99.90;;;;;;5093575;28;20266;-76
2022/10/22 03:55:16;;;;;;;0.90;0.73;;;24.80;99.90;;;;;;5093083;28;20209;-73
2022/10/22 03:57:43;;;;;;;1.17;1.00;;;25.00;99.90;;;;;;5075341;28;20191;-74
2022/10/22 04:00:11;;;;;;;2.07;1.00;;;25.10;99.90;;;;;;5081949;28;20644;-75
2022/10/22 04:02:38;;;;;;;2.27;1.23;;;25.10;99.90;;;;;;5073322;28;20669;-74
2022/10/22 04:05:06;;;;;;;1.80;1.10;;;25.20;99.90;;;;;;5073173;28;20527;-74
2022/10/22 04:07:33;;;;;;;3.37;1.27;;;25.20;99.90;;;;;;5090421;28;20232;-74
2022/10/22 04:10:01;;;;;;;1.03;0.90;;;25.10;99.90;;;;;;5085694;28;20649;-72
2022/10/22 04:12:29;;;;;;;3.37;1.00;;;25.30;99.90;;;;;;5084368;28;20590;-74
2022/10/22 04:14:56;;;;;;;3.70;1.50;;;25.60;99.90;;;;;;5075156;28;20664;-73
2022/10/22 04:17:23;;;;;;;2.03;1.20;;;25.70;99.90;;;;;;5079002;28;20562;-73
2022/10/22 04:19:51;;;;;;;4.03;1.20;;;26.00;99.90;;;;;;5072803;28;20222;-73
2022/10/22 04:22:18;;;;;;;3.47;1.73;;;26.30;99.90;;;;;;5072859;28;20172;-73
2022/10/22 04:24:45;;;;;;;1.30;0.93;;;26.60;99.90;;;;;;5072882;28;20180;-72
2022/10/22 04:27:13;;;;;;;1.87;1.10;;;26.90;99.90;;;;;;5072716;28;20211;-73
2022/10/22 04:29:40;;;;;;;1.77;1.27;;;27.20;99.90;;;;;;5054584;28;20595;-72
2022/10/22 04:32:11;;;;;;;1.57;1.10;;;27.50;99.90;;;;;;5071674;28;20168;-72
2022/10/22 04:34:38;;;;;;;5.53;1.93;;;27.90;99.90;;;;;;5054544;28;20180;-76
2022/10/22 04:37:05;;;;;;;9.00;2.30;;;28.30;99.90;;;;;;5072523;28;20172;-75
2022/10/22 04:39:33;;;;;;;10.67;2.93;;;28.40;99.90;;;;;;5072338;28;20223;-75
2022/10/22 04:42:00;;;;;;;10.27;2.70;;;28.40;99.90;;;;;;5072481;28;20207;-79
2022/10/22 04:44:29;;;;;;;14.53;3.23;;;28.30;99.90;;;;;;5072365;28;20171;-75
2022/10/22 04:46:56;;;;;;;14.27;3.33;;;27.80;99.90;;;;;;5054494;28;20176;-76
2022/10/22 04:49:24;;;;;;;10.33;2.50;;;27.20;99.90;;;;;;5054482;28;20204;-73
2022/10/22 04:51:51;;;;;;;15.93;3.67;;;26.80;99.90;;;;;;5072334;28;20247;-75
2022/10/22 04:54:18;;;;;;;13.97;3.27;;;26.70;99.90;;;;;;5072300;28;20172;-75
2022/10/22 04:56:46;;;;;;;13.67;3.27;;;26.60;99.90;;;;;;5072287;28;20586;-74
2022/10/22 04:59:14;;;;;;;17.43;2.57;;;26.60;99.90;;;;;;5071999;28;20210;-76
2022/10/22 05:01:44;;;;;;;14.97;3.60;;;26.40;99.90;;;;;;5072017;28;20228;-72
2022/10/22 05:04:15;;;;;;;15.00;3.00;;;26.10;99.90;;;;;;5072184;28;20172;-76
2022/10/22 05:06:43;;;;;;;14.07;3.23;;;25.90;99.90;;;;;;5091002;28;20210;-72
2022/10/22 05:09:20;;;;;;;12.43;3.17;;;25.80;99.90;;;;;;5092353;28;20175;-73
2022/10/22 05:11:50;;;;;;;15.63;3.30;;;25.70;99.90;;;;;;5092290;28;20166;-75
2022/10/22 05:14:23;;;;;;;13.47;2.97;;;25.60;99.90;;;;;;5092219;28;20175;-75
2022/10/22 05:16:52;;;;;;;20.80;3.57;;;25.70;99.90;;;;;;5084409;28;20235;-73
2022/10/22 05:19:26;;;;;;;10.10;2.83;;;25.70;99.90;;;;;;5072651;28;20541;-74
2022/10/22 05:21:56;;;;;;;20.53;3.80;;;25.70;99.90;;;;;;5073040;28;20197;-74
2022/10/22 05:24:24;;;;;;;13.77;3.17;;;25.90;99.90;;;;;;5083507;28;20183;-77
2022/10/22 05:26:54;;;;;;;10.27;2.40;;;26.00;99.90;;;;;;5092234;28;20201;-74
2022/10/22 05:29:22;;;;;;;14.47;4.20;;;26.00;99.90;;;;;;5091671;28;20187;-75
2022/10/22 05:31:50;;;;;;;13.13;3.47;;;25.90;99.90;;;;;;5090376;28;20253;-73
2022/10/22 05:34:17;;;;;;;15.40;3.90;;;25.70;99.90;;;;;;5081382;28;20184;-75
2022/10/22 05:36:45;;;;;;;9.90;2.70;;;25.70;99.90;;;;;;5053764;28;20192;-75
2022/10/22 05:39:12;;;;;;;21.13;4.07;;;25.70;99.90;;;;;;5073213;28;20619;-76
2022/10/22 05:41:40;;;;;;;10.23;3.47;;;25.80;99.90;;;;;;5091994;28;20229;-75
2022/10/22 05:44:10;;;;;;;12.70;3.40;;;25.90;99.90;;;;;;5082840;28;20194;-76
2022/10/22 05:46:38;;;;;;;21.57;4.57;;;25.90;99.90;;;;;;5072731;28;20267;-76
2022/10/22 05:49:07;;;;;;;12.80;2.80;;;25.90;99.90;;;;;;5071499;28;20249;-74
2022/10/22 05:51:36;;;;;;;16.50;3.00;;;25.90;99.90;;;;;;5071722;28;20186;-75
2022/10/22 05:54:06;;;;;;;11.90;2.67;;;26.10;99.90;;;;;;5079070;28;20541;-74
2022/10/22 05:56:35;;;;;;;15.20;2.90;;;26.40;99.90;;;;;;5091309;28;20640;-76
2022/10/22 05:59:03;;;;;;;12.13;2.73;;;26.40;99.90;;;;;;5083486;28;20573;-74
2022/10/22 06:01:34;;;;;;;8.90;2.67;;;26.20;99.90;;;;;;5071410;28;20771;-74
2022/10/22 06:04:04;;;;;;;11.43;2.67;;;26.10;99.90;;;;;;5072580;28;20677;-73
2022/10/22 06:06:34;;;;;;;14.87;2.87;;;26.00;99.90;;;;;;5072712;28;20275;-75
2022/10/22 06:09:19;;;;;;;7.97;2.23;;;26.00;99.90;;;;;;5087748;28;20708;-72
2022/10/22 06:11:47;;;;;;;12.97;2.40;;;25.90;99.90;;;;;;5091776;28;20170;-74
2022/10/22 06:14:16;;;;;;;9.47;2.50;;;25.60;99.90;;;;;;5085369;28;20172;-73
2022/10/22 06:16:44;;;;;;;10.07;2.37;;;25.50;99.90;;;;;;5078616;28;20194;-73
2022/10/22 06:19:16;;;;;;;7.53;2.03;;;25.40;99.90;;;;;;5076951;28;20208;-74
2022/10/22 06:25:07;;;;;;;10.97;2.40;;;25.30;99.90;;;;;;5090954;28;20671;-75
2022/10/22 06:27:34;;;;;;;9.10;3.13;;;25.20;99.90;;;;;;5077499;28;20191;-77
2022/10/22 06:30:02;;;;;;;8.10;1.97;;;25.20;99.90;;;;;;5071022;28;20184;-76
2022/10/22 06:32:31;;;;;;;8.80;2.50;;;25.10;99.90;;;;;;5071331;28;20589;-74
2022/10/22 06:34:58;;;;;;;10.00;2.63;;;25.20;99.90;;;;;;5080862;28;20190;-73
2022/10/22 06:37:25;;;;;;;11.50;2.53;;;25.10;99.90;;;;;;5091160;28;20184;-73
2022/10/22 06:39:53;;;;;;;10.77;2.33;;;25.10;99.90;;;;;;5089280;28;20689;-72
2022/10/22 06:42:20;;;;;;;7.93;2.63;;;25.00;99.90;;;;;;5091474;28;20171;-76
2022/10/22 06:44:47;;;;;;;13.33;2.43;;;24.90;99.90;;;;;;5082458;28;20175;-73
2022/10/22 06:47:15;;;;;;;8.27;1.87;;;24.80;99.90;;;;;;5072122;28;20265;-73
2022/10/22 06:49:42;;;;;;;13.30;3.00;;;24.80;99.90;;;;;;5090526;28;20210;-73
2022/10/22 06:52:09;;;;;;;7.27;2.23;;;24.80;99.90;;;;;;5091219;28;20569;-76
2022/10/22 06:54:37;;;;;;;16.00;2.77;;;24.70;99.90;;;;;;5084440;28;20184;-73
2022/10/22 06:57:04;;;;;;;7.50;2.50;;;24.70;99.90;;;;;;5074469;28;20182;-73
2022/10/22 06:59:32;;;;;;;16.00;2.70;;;24.70;99.90;;;;;;5074505;28;20246;-74
2022/10/22 07:01:59;;;;;;;8.13;2.20;;;24.60;99.90;;;;;;5074254;28;20233;-74
2022/10/22 07:04:27;;;;;;;10.27;2.43;;;24.50;99.90;;;;;;5078970;28;20182;-73
2022/10/22 07:06:57;;;;;;;12.90;3.00;;;24.40;99.90;;;;;;5094630;28;20179;-75
2022/10/22 07:09:24;;;;;;;12.97;2.90;;;24.30;99.90;;;;;;5090758;28;20639;-75
2022/10/22 07:11:52;;;;;;;10.63;2.53;;;24.20;99.90;;;;;;5090391;28;20659;-73
2022/10/22 07:14:19;;;;;;;13.70;2.87;;;24.10;99.90;;;;;;5092792;28;20635;-72
2022/10/22 07:16:46;;;;;;;15.27;3.03;;;24.10;99.90;;;;;;5091611;28;20178;-74
2022/10/22 07:19:14;;;;;;;14.73;2.70;;;24.10;99.90;;;;;;5092275;28;20203;-73
2022/10/22 07:21:42;;;;;;;10.33;2.50;;;24.00;99.90;;;;;;5085516;28;20195;-74
2022/10/22 07:24:09;;;;;;;8.00;2.30;;;23.90;99.90;;;;;;5075137;28;20175;-74
2022/10/22 07:26:36;;;;;;;9.20;2.63;;;23.90;99.90;;;;;;5074320;28;20625;-76
2022/10/22 07:29:04;;;;;;;15.67;2.70;;;23.90;99.90;;;;;;5073992;28;20652;-76
2022/10/22 07:31:32;;;;;;;9.77;2.43;;;23.90;99.90;;;;;;5056016;28;20207;-77
2022/10/22 07:33:59;;;;;;;15.13;2.87;;;23.90;99.90;;;;;;5074176;28;20190;-75
2022/10/22 07:36:27;;;;;;;10.70;2.43;;;23.80;99.90;;;;;;5080201;28;20182;-76
2022/10/22 07:38:57;;;;;;;11.53;2.43;;;23.80;99.90;;;;;;5094182;28;20776;-75
2022/10/22 07:41:25;;;;;;;9.23;2.10;;;23.70;99.90;;;;;;5095447;28;20659;-75
2022/10/22 07:43:53;;;;;;;12.00;2.83;;;23.70;99.90;;;;;;5093526;28;20338;-74
2022/10/22 07:46:20;;;;;;;12.63;2.50;;;23.70;99.90;;;;;;5074130;28;20837;-75
2022/10/22 07:48:48;;;;;;;22.70;3.27;;;23.60;99.90;;;;;;5075117;28;20641;-74
2022/10/22 07:51:16;;;;;;;11.73;2.87;;;23.50;99.90;;;;;;5073753;28;20237;-74
2022/10/22 07:53:44;;;;;;;8.30;2.50;;;23.50;99.90;;;;;;5074797;28;20219;-73
2022/10/22 07:56:11;;;;;;;12.00;2.87;;;23.40;99.90;;;;;;5073469;28;20201;-73
2022/10/22 07:58:40;;;;;;;11.77;2.70;;;23.40;99.90;;;;;;5093370;28;20274;-73
2022/10/22 08:01:08;;;;;;;10.73;2.50;;;23.30;99.90;;;;;;5092814;28;20245;-72
2022/10/22 08:03:35;;;;;;;14.37;3.17;;;23.30;99.90;;;;;;5093711;28;20572;-72
2022/10/22 08:06:03;;;;;;;12.57;2.70;;;23.20;99.90;;;;;;5090409;28;20339;-72
2022/10/22 08:08:30;;;;;;;10.07;2.67;;;23.20;99.90;;;;;;5093004;28;20258;-73
2022/10/22 08:11:00;;;;;;;9.13;3.10;;;23.10;99.90;;;;;;5093172;28;20189;-72
2022/10/22 08:13:31;;;;;;;9.83;2.97;;;23.10;99.90;;;;;;5079185;28;20178;-73
2022/10/22 08:16:00;;;;;;;10.80;2.87;;;23.00;99.90;;;;;;5086252;28;20188;-74
2022/10/22 08:18:29;;;;;;;5.60;2.37;;;22.90;99.90;;;;;;5091119;28;20190;-74
2022/10/22 08:20:57;;;;;;;13.63;3.60;;;22.90;99.90;;;;;;5092401;28;20556;-73
2022/10/22 08:23:24;;;;;;;9.10;2.67;;;22.90;99.90;;;;;;5093077;28;20170;-74
2022/10/22 08:25:52;;;;;;;12.47;2.97;;;22.90;99.90;;;;;;5077241;28;20539;-72
2022/10/22 08:28:20;;;;;;;11.67;3.13;;;22.90;99.90;;;;;;5085733;28;20262;-76
2022/10/22 08:30:47;;;;;;;18.07;3.33;;;22.80;99.90;;;;;;5076387;28;20183;-72
2022/10/22 08:33:15;;;;;;;12.23;2.43;;;22.80;99.90;;;;;;5084342;28;20659;-75
2022/10/22 08:35:46;;;;;;;12.83;3.13;;;22.80;99.90;;;;;;5090212;28;20194;-73
2022/10/22 08:38:14;;;;;;;16.00;3.30;;;22.80;99.90;;;;;;5092866;28;20187;-76
2022/10/22 08:40:41;;;;;;;12.03;2.50;;;22.70;99.90;;;;;;5092622;28;20225;-74
2022/10/22 08:43:50;;;;;;;15.97;3.23;;;22.70;99.90;;;;;;5092651;28;20190;-74
2022/10/22 08:46:29;;;;;;;13.97;3.00;;;22.60;99.90;;;;;;5027360;28;20222;-73
2022/10/22 08:49:03;;;;;;;17.93;3.47;;;22.60;99.90;;;;;;5073385;28;20268;-73
2022/10/22 08:51:35;;;;;;;12.83;2.80;;;22.60;99.90;;;;;;5072557;28;20190;-73
2022/10/22 08:54:30;;;;;;;15.93;3.80;;;22.60;99.90;;;;;;5079470;28;20191;-73
2022/10/22 08:57:13;;;;;;;11.30;3.17;;;22.60;99.90;;;;;;5072354;28;20660;-73
2022/10/22 08:59:40;;;;;;;14.27;2.57;;;22.60;99.90;;;;;;5083394;28;20222;-74
2022/10/22 09:02:37;;;;;;;11.50;3.13;;;22.60;99.90;;;;;;5085203;28;20247;-74
2022/10/22 09:05:23;;;;;;;9.33;2.77;;;22.50;99.90;;;;;;5083019;28;20198;-74
2022/10/22 09:07:52;;;;;;;12.30;3.07;;;22.50;99.90;;;;;;5073691;28;20184;-74
2022/10/22 09:10:25;;;;;;;11.80;2.77;;;22.50;99.90;;;;;;5073794;28;20624;-75
2022/10/22 09:12:52;;;;;;;13.37;3.37;;;22.50;99.90;;;;;;5073897;28;20206;-74
2022/10/22 09:15:20;;;;;;;7.47;2.43;;;22.50;99.90;;;;;;5083047;28;20223;-73
2022/10/22 09:18:04;;;;;;;7.20;1.90;;;22.40;99.90;;;;;;5093415;28;20268;-74
2022/10/22 09:20:57;;;;;;;3.87;1.70;;;22.40;99.90;;;;;;5094152;28;20712;-75
2022/10/22 09:23:33;;;;;;;6.63;1.73;;;22.40;99.90;;;;;;5080275;28;20203;-75
2022/10/22 09:26:01;;;;;;;5.57;1.60;;;22.30;99.90;;;;;;5074636;28;20214;-73
2022/10/22 09:28:28;;;;;;;5.60;1.40;;;22.30;99.90;;;;;;5093560;28;20197;-73
2022/10/22 09:30:55;;;;;;;7.07;2.17;;;22.30;99.90;;;;;;5093681;28;20531;-74
2022/10/22 09:33:29;;;;;;;6.53;1.43;;;22.30;99.90;;;;;;5075349;28;20656;-74
2022/10/22 09:36:06;;;;;;;6.23;1.80;;;22.30;99.90;;;;;;5084833;28;20185;-74
2022/10/22 09:38:40;;;;;;;4.73;1.83;;;22.30;99.90;;;;;;5089266;28;20182;-74
2022/10/22 09:41:09;;;;;;;6.33;1.90;;;22.30;99.90;;;;;;5093545;28;20182;-74
2022/10/22 09:43:36;;;;;;;5.67;1.80;;;22.20;99.90;;;;;;5092923;28;20265;-75
2022/10/22 09:46:10;;;;;;;2.93;1.60;;;22.10;99.90;;;;;;5069910;28;20637;-73
2022/10/22 09:48:42;;;;;;;6.13;1.67;;;22.00;99.90;;;;;;5056237;28;20177;-74
2022/10/22 09:51:22;;;;;;;4.87;1.60;;;22.00;99.90;;;;;;5073389;28;20176;-74
2022/10/22 09:53:58;;;;;;;7.80;1.57;;;22.00;99.90;;;;;;5073302;28;20215;-74
2022/10/22 09:56:34;;;;;;;4.47;1.43;;;21.90;99.90;;;;;;5073343;28;20172;-74
2022/10/22 09:59:01;;;;;;;6.83;1.50;;;21.80;99.90;;;;;;5073094;28;20310;-74
2022/10/22 10:01:33;;;;;;;4.80;1.20;;;21.80;99.90;;;;;;5072814;28;20263;-74
2022/10/22 10:04:07;;;;;;;3.97;1.50;;;21.80;99.90;;;;;;5072731;28;20237;-74
2022/10/22 10:06:37;;;;;;;5.60;1.70;;;21.80;99.90;;;;;;5073089;28;20706;-74
2022/10/22 10:09:19;;;;;;;4.70;1.50;;;21.70;99.90;;;;;;5073131;28;20179;-74
2022/10/22 10:12:03;;;;;;;3.00;1.10;;;21.60;99.90;;;;;;5072846;28;20203;-73
2022/10/22 10:15:03;;;;;;;6.47;1.53;;;21.60;99.90;;;;;;5073320;28;20172;-74
2022/10/22 10:17:42;;;;;;;7.43;1.30;;;21.60;99.90;;;;;;5072969;28;20184;-73
2022/10/22 10:20:40;;;;;;;3.23;0.97;;;21.50;99.90;;;;;;5072520;28;20226;-74
2022/10/22 10:23:23;;;;;;;4.90;1.40;;;21.50;99.90;;;;;;5073101;28;20183;-74
2022/10/22 10:26:04;;;;;;;4.83;1.40;;;21.40;99.90;;;;;;5054549;28;20176;-74
2022/10/22 10:28:31;;;;;;;3.67;1.30;;;21.40;99.90;;;;;;5072733;28;20210;-74
2022/10/22 10:31:04;;;;;;;2.40;1.13;;;21.30;99.90;;;;;;5075424;28;20615;-74
2022/10/22 10:34:05;;;;;;;5.43;1.50;;;21.40;99.90;;;;;;5058801;28;20214;-74
2022/10/22 10:36:40;;;;;;;5.00;1.40;;;21.40;99.90;;;;;;5076778;28;20207;-74
2022/10/22 10:39:26;;;;;;;4.57;1.47;;;21.40;99.90;;;;;;5077067;28;20239;-73
2022/10/22 10:42:21;;;;;;;4.07;1.20;;;21.40;99.90;;;;;;5078780;28;20172;-75
2022/10/22 10:45:13;;;;;;;4.07;1.23;;;21.30;99.90;;;;;;5064027;28;20741;-75
2022/10/22 10:48:10;;;;;;;4.87;1.40;;;21.30;99.90;;;;;;5076969;28;20588;-74
2022/10/22 10:51:04;;;;;;;5.20;1.00;;;21.30;99.90;;;;;;5077053;28;20201;-75
2022/10/22 10:53:46;;;;;;;4.10;1.40;;;21.30;99.90;;;;;;5076742;28;20176;-74
2022/10/22 10:56:38;;;;;;;5.87;1.13;;;21.30;99.90;;;;;;5076717;28;20172;-74
2022/10/22 10:59:24;;;;;;;6.17;1.30;;;21.30;99.90;;;;;;5062514;28;20198;-74
2022/10/22 11:02:18;;;;;;;4.83;1.17;;;21.20;99.90;;;;;;5073125;28;20219;-74
2022/10/22 11:05:22;;;;;;;6.43;1.50;;;21.30;99.90;;;;;;5073654;28;20217;-74
2022/10/22 11:08:24;;;;;;;5.10;1.40;;;21.20;99.90;;;;;;5072781;28;20207;-74
2022/10/22 11:11:03;;;;;;;3.33;1.20;;;21.20;99.90;;;;;;5066402;28;20176;-74
2022/10/22 11:13:44;;;;;;;2.90;1.50;;;21.20;99.90;;;;;;5082309;28;20688;-74
2022/10/22 11:16:23;;;;;;;5.53;1.23;;;21.20;99.90;;;;;;5074060;28;20179;-74
2022/10/22 11:19:04;;;;;;;4.60;1.47;;;21.20;99.90;;;;;;5073786;28;20283;-74
2022/10/22 11:21:56;;;;;;;7.27;1.47;;;21.20;99.90;;;;;;5073985;28;20206;-75
2022/10/22 11:24:34;;;;;;;3.03;1.43;;;21.10;99.90;;;;;;5075577;28;20191;-75
2022/10/22 11:27:07;;;;;;;5.07;1.73;;;21.10;99.90;;;;;;5075828;28;20701;-75
2022/10/22 11:29:40;;;;;;;4.13;1.40;;;21.00;99.90;;;;;;5076108;28;20199;-75
2022/10/22 11:32:22;;;;;;;4.07;1.40;;;21.00;99.90;;;;;;5071803;28;20586;-75
2022/10/22 11:34:57;;;;;;;2.17;1.20;;;20.90;99.90;;;;;;5055560;28;20640;-75
2022/10/22 11:37:33;;;;;;;4.00;1.23;;;20.80;99.90;;;;;;5055520;28;20676;-75
2022/10/22 11:40:18;;;;;;;4.73;1.30;;;20.90;99.90;;;;;;5070666;28;20696;-75
2022/10/22 11:42:58;;;;;;;2.87;1.13;;;20.80;99.90;;;;;;5061081;28;20180;-74
2022/10/22 11:45:27;;;;;;;4.53;1.50;;;20.80;99.90;;;;;;5075363;28;20203;-74
2022/10/22 11:48:10;;;;;;;2.83;1.10;;;20.80;99.90;;;;;;5074048;28;20270;-75
2022/10/22 11:50:58;;;;;;;3.77;1.23;;;20.80;99.90;;;;;;5075441;28;20204;-75
2022/10/22 11:53:33;;;;;;;3.17;1.20;;;20.70;99.90;;;;;;5075476;28;20184;-75
2022/10/22 11:56:08;;;;;;;7.03;1.60;;;20.80;99.90;;;;;;5056765;28;20176;-74
2022/10/22 11:58:42;;;;;;;2.43;1.30;;;20.70;99.90;;;;;;5054874;28;20550;-74
2022/10/22 12:01:10;;;;;;;4.33;1.30;;;20.70;99.90;;;;;;5065492;28;20236;-75
2022/10/22 12:03:45;;;;;;;4.60;1.33;;;20.80;99.90;;;;;;5057168;28;20261;-74
2022/10/22 12:06:15;;;;;;;5.27;1.53;;;20.80;99.90;;;;;;5093730;28;20219;-74
2022/10/22 12:08:53;;;;;;;5.27;1.37;;;20.80;99.90;;;;;;5093599;28;20539;-75
2022/10/22 12:11:22;;;;;;;2.43;1.37;;;20.80;99.90;;;;;;5057051;28;20257;-75
2022/10/22 12:14:13;;;;;;;3.63;1.03;;;20.80;99.90;;;;;;5056891;28;20189;-74
2022/10/22 12:16:57;;;;;;;5.50;1.37;;;20.80;99.90;;;;;;5095137;28;20192;-75
2022/10/22 12:19:33;;;;;;;4.10;1.10;;;20.80;99.90;;;;;;5094419;28;20219;-74
2022/10/22 12:22:15;;;;;;;3.93;1.30;;;20.80;99.90;;;;;;5094869;28;20179;-73
2022/10/22 12:24:51;;;;;;;4.37;1.20;;;20.80;99.90;;;;;;5074825;28;20679;-74
2022/10/22 12:27:24;;;;;;;6.43;1.47;;;20.80;99.90;;;;;;5094699;28;20164;-74
2022/10/22 12:29:57;;;;;;;4.60;1.13;;;20.80;99.90;;;;;;5094955;28;20171;-74
2022/10/22 12:32:40;;;;;;;1.77;0.93;;;20.80;99.90;;;;;;5092217;28;20180;-73
2022/10/22 12:35:19;;;;;;;4.47;1.60;;;20.80;99.90;;;;;;5094614;28;20179;-75
2022/10/22 12:37:57;;;;;;;4.67;1.20;;;20.70;99.90;;;;;;5084273;28;20259;-75
2022/10/22 12:40:34;;;;;;;2.53;0.83;;;20.60;99.90;;;;;;5074205;28;20214;-74
2022/10/22 12:43:15;;;;;;;4.23;1.50;;;20.60;99.90;;;;;;5093503;28;20648;-75
2022/10/22 12:45:46;;;;;;;6.30;2.20;;;20.60;99.90;;;;;;5094375;28;20266;-74
2022/10/22 12:48:21;;;;;;;3.83;1.47;;;20.50;99.90;;;;;;5094253;28;20622;-74
2022/10/22 12:50:52;;;;;;;4.93;1.37;;;20.40;99.90;;;;;;5093674;28;20171;-75
2022/10/22 12:53:28;;;;;;;5.87;1.57;;;20.40;99.90;;;;;;5073940;28;20328;-75
2022/10/22 12:56:05;;;;;;;5.47;1.50;;;20.30;99.90;;;;;;5074309;28;20179;-75
2022/10/22 12:58:45;;;;;;;3.90;1.67;;;20.30;99.90;;;;;;5073894;28;20184;-75
2022/10/22 13:01:14;;;;;;;5.03;1.60;;;20.30;99.90;;;;;;5074653;28;20260;-75
2022/10/22 13:03:50;;;;;;;5.70;1.57;;;20.30;99.90;;;;;;5088489;28;20705;-75
2022/10/22 13:06:23;;;;;;;7.70;2.13;;;20.30;99.90;;;;;;5073719;28;20530;-75
2022/10/22 13:09:07;;;;;;;4.07;2.07;;;20.40;99.90;;;;;;5073838;28;20225;-75
2022/10/22 13:12:01;;;;;;;5.17;2.20;;;20.40;99.90;;;;;;5078978;28;20542;-74
2022/10/22 13:14:33;;;;;;;4.63;1.60;;;20.40;99.90;;;;;;5094158;28;20696;-74
2022/10/22 13:17:15;;;;;;;5.23;1.77;;;20.30;99.90;;;;;;5093763;28;20688;-73
2022/10/22 13:19:47;;;;;;;5.37;1.70;;;20.40;99.90;;;;;;5093713;28;20250;-75